Time;durP1;ratioP1;P1;durP2;ratioP2;P2;SDS_P1;SDS_P2;PMS_P1;PMS_P2;Temp;Humidity;BMP_temperature;BMP_pressure;BME280_temperature;BME280_humidity;BME280_pressure;Samples;Min_cycle;Max_cycle;Signal;HPM_P1;HPM_P2
2022/06/23 00:00:30;;;;;;;1.58;1.48;;;22.30;99.90;;;;;;5014970;28;20199;-83
2022/06/23 00:02:57;;;;;;;4.35;1.60;;;22.30;99.90;;;;;;5015171;28;20271;-84
2022/06/23 00:05:26;;;;;;;2.10;1.50;;;22.20;99.90;;;;;;5016518;28;20164;-84
2022/06/23 00:07:55;;;;;;;2.08;1.40;;;22.30;99.90;;;;;;5015200;28;20207;-84
2022/06/23 00:10:44;;;;;;;12.40;2.28;;;22.10;99.90;;;;;;5015954;28;20656;-84
2022/06/23 00:13:34;;;;;;;10.57;2.20;;;22.00;99.90;;;;;;5014588;28;20223;-82
2022/06/23 00:16:00;;;;;;;3.38;1.42;;;22.00;99.90;;;;;;5015284;28;20230;-83
2022/06/23 00:18:31;;;;;;;3.95;1.52;;;22.10;99.90;;;;;;5014710;28;20195;-84
2022/06/23 00:21:25;;;;;;;2.65;1.70;;;21.80;99.90;;;;;;5014348;28;20172;-84
2022/06/23 00:23:54;;;;;;;2.33;1.50;;;21.60;99.90;;;;;;5017656;28;20181;-83
2022/06/23 00:26:26;;;;;;;2.05;1.75;;;21.60;99.90;;;;;;5014384;28;20531;-84
2022/06/23 00:28:57;;;;;;;3.28;1.73;;;21.60;99.90;;;;;;5014458;28;20660;-84
2022/06/23 00:31:40;;;;;;;3.60;1.95;;;21.70;99.90;;;;;;5013816;28;20286;-84
2022/06/23 00:34:14;;;;;;;2.65;1.77;;;21.70;99.90;;;;;;5015971;28;20190;-84
2022/06/23 00:36:47;;;;;;;3.15;1.45;;;21.60;99.90;;;;;;5015808;28;20183;-84
2022/06/23 00:39:38;;;;;;;4.50;1.40;;;21.60;99.90;;;;;;5015629;28;20202;-84
2022/06/23 00:42:18;;;;;;;1.65;1.55;;;21.50;99.90;;;;;;5014627;28;20182;-84
2022/06/23 00:44:57;;;;;;;2.53;1.67;;;21.50;99.90;;;;;;5015375;28;20168;-84
2022/06/23 00:47:50;;;;;;;3.15;1.63;;;21.50;99.90;;;;;;5015911;28;20223;-83
2022/06/23 00:50:18;;;;;;;2.95;1.90;;;21.40;99.90;;;;;;5024201;28;20271;-84
2022/06/23 00:53:01;;;;;;;8.23;1.60;;;21.40;99.90;;;;;;5014667;28;20199;-85
2022/06/23 00:55:45;;;;;;;3.25;1.60;;;21.50;99.90;;;;;;5014185;28;20164;-83
2022/06/23 00:58:51;;;;;;;9.48;1.77;;;21.50;99.90;;;;;;5030440;28;20287;-84
2022/06/23 01:01:36;;;;;;;4.07;1.83;;;21.50;99.90;;;;;;5020146;28;20196;-84
2022/06/23 01:04:05;;;;;;;7.07;1.60;;;21.30;99.90;;;;;;5014102;28;20176;-84
2022/06/23 01:07:00;;;;;;;3.45;1.75;;;21.30;99.90;;;;;;5015184;28;20173;-84
2022/06/23 01:09:25;;;;;;;2.95;1.98;;;21.20;99.90;;;;;;5013726;28;20236;-84
2022/06/23 01:12:03;;;;;;;3.83;1.42;;;21.20;99.90;;;;;;5015452;28;20604;-83
2022/06/23 01:14:34;;;;;;;3.00;1.65;;;21.10;99.90;;;;;;5013743;28;20170;-83
2022/06/23 01:17:27;;;;;;;6.95;1.60;;;21.10;99.90;;;;;;5013693;28;20544;-83
2022/06/23 01:20:16;;;;;;;3.80;1.65;;;21.30;99.90;;;;;;5015251;28;20153;-84
2022/06/23 01:22:48;;;;;;;17.25;1.70;;;21.30;99.90;;;;;;5013836;28;20212;-84
2022/06/23 01:25:35;;;;;;;4.55;1.67;;;21.20;99.90;;;;;;5013797;28;20255;-83
2022/06/23 01:28:18;;;;;;;6.30;1.52;;;21.40;99.90;;;;;;5014765;28;20569;-83
2022/06/23 01:31:08;;;;;;;3.47;1.58;;;21.20;99.90;;;;;;5013808;28;20231;-84
2022/06/23 01:33:47;;;;;;;5.18;1.55;;;21.10;99.90;;;;;;5015056;28;20227;-84
2022/06/23 01:36:29;;;;;;;3.20;2.13;;;21.10;99.90;;;;;;5014019;28;20267;-84
2022/06/23 01:39:04;;;;;;;1.33;1.23;;;21.20;99.90;;;;;;5013785;28;20223;-84
2022/06/23 01:41:42;;;;;;;2.53;1.58;;;21.10;99.90;;;;;;5013711;28;20222;-84
2022/06/23 01:44:14;;;;;;;5.15;1.63;;;20.90;99.90;;;;;;5014456;28;20160;-84
2022/06/23 01:46:42;;;;;;;4.28;1.58;;;20.80;99.90;;;;;;5013332;28;20183;-83
2022/06/23 01:49:28;;;;;;;8.25;1.60;;;20.90;99.90;;;;;;5029713;28;20194;-83
2022/06/23 01:52:02;;;;;;;5.22;1.73;;;21.00;99.90;;;;;;5014298;28;20212;-83
2022/06/23 01:54:32;;;;;;;4.90;1.58;;;20.90;99.90;;;;;;5013328;28;20169;-83
2022/06/23 01:57:05;;;;;;;3.13;1.83;;;20.90;99.90;;;;;;5013239;28;20172;-83
2022/06/23 01:59:34;;;;;;;14.02;1.83;;;20.80;99.90;;;;;;5012976;28;20172;-84
2022/06/23 02:02:21;;;;;;;1.80;1.38;;;20.80;99.90;;;;;;5013284;28;20533;-84
2022/06/23 02:04:55;;;;;;;1.33;1.23;;;20.80;99.90;;;;;;5014370;28;20187;-83
2022/06/23 02:07:33;;;;;;;2.90;1.90;;;20.90;99.90;;;;;;5013114;28;20189;-83
2022/06/23 02:10:25;;;;;;;1.67;1.27;;;20.90;99.90;;;;;;5012665;28;20223;-83
2022/06/23 02:13:07;;;;;;;8.80;1.67;;;20.80;99.90;;;;;;5015576;28;20200;-84
2022/06/23 02:15:47;;;;;;;1.70;1.60;;;20.80;99.90;;;;;;5039844;28;20146;-82
2022/06/23 02:18:43;;;;;;;2.95;1.60;;;20.80;99.90;;;;;;5038192;28;20272;-85
2022/06/23 02:21:39;;;;;;;5.25;1.85;;;20.70;99.90;;;;;;5020462;28;20212;-84
2022/06/23 02:24:24;;;;;;;7.45;2.17;;;20.90;99.90;;;;;;5012988;28;20191;-84
2022/06/23 02:27:00;;;;;;;1.70;1.58;;;20.90;99.90;;;;;;5012291;28;20222;-83
2022/06/23 02:29:29;;;;;;;2.08;1.70;;;20.70;99.90;;;;;;5013978;28;20164;-83
2022/06/23 02:32:18;;;;;;;1.80;1.65;;;20.80;99.90;;;;;;5015847;28;20207;-84
2022/06/23 02:34:59;;;;;;;5.57;1.95;;;20.80;99.90;;;;;;5018023;28;20152;-83
2022/06/23 02:37:55;;;;;;;1.92;1.70;;;20.70;99.90;;;;;;5015870;28;20203;-83
2022/06/23 02:40:44;;;;;;;2.13;1.88;;;20.60;99.90;;;;;;5016854;28;20192;-83
2022/06/23 02:43:10;;;;;;;2.63;1.50;;;20.50;99.90;;;;;;5016635;28;20164;-83
2022/06/23 02:46:00;;;;;;;6.93;1.90;;;20.50;99.90;;;;;;5016041;28;20570;-83
2022/06/23 02:48:57;;;;;;;2.17;1.30;;;20.50;99.90;;;;;;5017667;28;20291;-84
2022/06/23 02:51:44;;;;;;;9.55;1.90;;;20.60;99.90;;;;;;5013429;28;20204;-84
2022/06/23 02:54:25;;;;;;;2.08;1.48;;;20.60;99.90;;;;;;5012164;28;20184;-84
2022/06/23 02:57:08;;;;;;;5.25;2.05;;;20.50;99.90;;;;;;5012131;28;20229;-83
2022/06/23 02:59:54;;;;;;;7.70;2.03;;;20.30;99.90;;;;;;5012349;28;20191;-84
2022/06/23 03:02:31;;;;;;;7.35;2.17;;;20.30;99.90;;;;;;5012430;28;20168;-84
2022/06/23 03:05:04;;;;;;;2.00;1.80;;;20.50;99.90;;;;;;5011988;28;20636;-83
2022/06/23 03:08:19;;;;;;;5.97;1.98;;;20.60;99.90;;;;;;5013196;28;20191;-83
2022/06/23 03:10:59;;;;;;;7.35;1.60;;;20.60;99.90;;;;;;4960701;28;20214;-84
2022/06/23 03:13:42;;;;;;;1.50;1.40;;;20.60;99.90;;;;;;5011801;28;20168;-84
2022/06/23 03:16:32;;;;;;;5.32;1.92;;;20.50;99.90;;;;;;5011743;28;20179;-83
2022/06/23 03:19:03;;;;;;;3.00;1.90;;;20.60;99.90;;;;;;5011946;28;20258;-83
2022/06/23 03:21:46;;;;;;;13.27;1.90;;;20.60;99.90;;;;;;5012168;28;20223;-83
2022/06/23 03:24:36;;;;;;;3.65;2.20;;;20.40;99.90;;;;;;5012185;28;20214;-82
2022/06/23 03:27:11;;;;;;;2.95;2.00;;;20.30;99.90;;;;;;5011174;28;20182;-83
2022/06/23 03:30:01;;;;;;;14.50;2.92;;;20.20;99.90;;;;;;5019687;28;20176;-83
2022/06/23 03:32:29;;;;;;;6.05;2.05;;;20.30;99.90;;;;;;5024255;28;20239;-83
2022/06/23 03:35:13;;;;;;;7.78;2.38;;;20.20;99.90;;;;;;5025288;28;20203;-83
2022/06/23 03:38:05;;;;;;;8.00;1.88;;;20.10;99.90;;;;;;5023418;28;20188;-83
2022/06/23 03:43:53;;;;;;;7.50;2.35;;;20.10;99.90;;;;;;5060427;28;20175;-84
2022/06/23 03:46:33;;;;;;;3.47;1.80;;;20.20;99.90;;;;;;5053774;28;20163;-82
2022/06/23 03:49:16;;;;;;;5.13;2.33;;;20.30;99.90;;;;;;5043866;28;20200;-83
2022/06/23 03:51:51;;;;;;;12.10;2.30;;;20.40;99.90;;;;;;5037535;28;20205;-83
2022/06/23 03:54:22;;;;;;;4.65;2.00;;;20.30;99.90;;;;;;5036510;28;20152;-83
2022/06/23 03:56:57;;;;;;;6.40;2.60;;;20.20;99.90;;;;;;5034541;28;20180;-82
2022/06/23 03:59:44;;;;;;;6.47;2.05;;;20.00;99.90;;;;;;5036093;28;20152;-83
2022/06/23 04:02:20;;;;;;;4.90;2.53;;;20.20;99.90;;;;;;5030202;28;20652;-84
2022/06/23 04:05:01;;;;;;;5.38;2.28;;;20.40;99.90;;;;;;5011933;28;20173;-83
2022/06/23 04:07:29;;;;;;;10.05;2.53;;;20.70;99.90;;;;;;5013796;28;20200;-84
2022/06/23 04:10:18;;;;;;;17.88;2.15;;;20.90;99.90;;;;;;5015201;28;20223;-84
2022/06/23 04:12:48;;;;;;;11.20;2.45;;;21.00;99.90;;;;;;5015362;28;20235;-84
2022/06/23 04:15:22;;;;;;;11.13;2.33;;;21.00;99.90;;;;;;5015359;28;20168;-84
2022/06/23 04:17:55;;;;;;;12.02;2.50;;;21.30;99.90;;;;;;5016610;28;20193;-83
2022/06/23 04:20:28;;;;;;;10.52;2.70;;;21.50;99.90;;;;;;5014978;28;20172;-83
2022/06/23 04:23:13;;;;;;;10.48;2.30;;;21.80;99.90;;;;;;5014832;28;20206;-84
2022/06/23 04:25:46;;;;;;;9.50;1.88;;;21.80;99.90;;;;;;5016748;28;20219;-84
2022/06/23 04:28:35;;;;;;;7.72;2.50;;;22.00;99.90;;;;;;5018264;28;20202;-84
2022/06/23 04:31:06;;;;;;;8.82;2.67;;;22.20;99.90;;;;;;5020727;28;20200;-83
2022/06/23 04:33:38;;;;;;;5.28;2.08;;;22.20;99.90;;;;;;5020548;28;20541;-82
2022/06/23 04:36:06;;;;;;;4.22;2.10;;;21.80;99.90;;;;;;5019138;28;20172;-82
2022/06/23 04:38:43;;;;;;;17.60;2.53;;;21.90;99.90;;;;;;5021845;28;20227;-82
2022/06/23 04:41:45;;;;;;;2.85;1.90;;;21.90;99.90;;;;;;5021020;28;20172;-83
2022/06/23 04:44:18;;;;;;;8.13;2.88;;;22.10;99.90;;;;;;5019765;28;20179;-83
2022/06/23 04:46:52;;;;;;;9.45;2.50;;;22.30;99.90;;;;;;5020425;28;20184;-83
2022/06/23 04:49:45;;;;;;;10.13;2.45;;;22.40;99.90;;;;;;5040603;28;20203;-80
2022/06/23 04:52:26;;;;;;;21.55;2.67;;;22.40;99.90;;;;;;5039682;28;20211;-83
2022/06/23 04:55:16;;;;;;;7.15;2.33;;;22.30;99.90;;;;;;5034710;28;20184;-83
2022/06/23 04:57:54;;;;;;;5.32;2.88;;;22.30;99.90;;;;;;5019773;28;20188;-82
2022/06/23 05:00:42;;;;;;;12.45;2.60;;;22.30;99.90;;;;;;5002813;28;20251;-83
2022/06/23 05:03:44;;;;;;;11.50;2.45;;;22.40;99.90;;;;;;5020111;28;20200;-84
2022/06/23 05:06:13;;;;;;;9.27;2.97;;;22.50;99.90;;;;;;5017268;28;20187;-85
2022/06/23 05:08:44;;;;;;;28.38;3.63;;;22.40;99.90;;;;;;5018758;28;20185;-82
2022/06/23 05:11:53;;;;;;;20.85;2.80;;;22.60;99.90;;;;;;5016646;28;20208;-83
2022/06/23 05:14:43;;;;;;;13.57;3.67;;;22.70;99.90;;;;;;5023803;28;20164;-82
2022/06/23 05:17:18;;;;;;;15.25;2.80;;;22.70;99.90;;;;;;5021612;28;20172;-82
2022/06/23 05:19:46;;;;;;;11.77;3.47;;;22.80;99.90;;;;;;5020771;28;20172;-84
2022/06/23 05:22:24;;;;;;;15.50;3.10;;;22.70;99.90;;;;;;5021065;28;20637;-82
2022/06/23 05:24:57;;;;;;;33.33;3.25;;;22.70;99.90;;;;;;5019829;28;20165;-84
2022/06/23 05:27:28;;;;;;;7.40;3.33;;;22.70;99.90;;;;;;5000208;28;20598;-83
2022/06/23 05:30:23;;;;;;;7.50;3.40;;;22.80;99.90;;;;;;5026122;28;20160;-82
2022/06/23 05:32:54;;;;;;;12.15;3.65;;;22.90;99.90;;;;;;5025769;28;20261;-87
2022/06/23 05:35:58;;;;;;;6.53;3.80;;;22.70;99.90;;;;;;5013313;28;20169;-91
2022/06/23 05:38:59;;;;;;;16.67;3.65;;;22.70;99.90;;;;;;5026799;28;20218;-90
2022/06/23 05:41:54;;;;;;;11.00;3.13;;;22.80;99.90;;;;;;5026964;28;20151;-91
2022/06/23 05:44:41;;;;;;;11.68;3.63;;;23.00;99.90;;;;;;5011292;28;20633;-91
2022/06/23 05:47:17;;;;;;;19.80;3.72;;;23.20;99.90;;;;;;5025071;28;20168;-91
2022/06/23 05:49:56;;;;;;;9.55;3.50;;;23.30;99.90;;;;;;5024386;28;20192;-91
2022/06/23 05:52:42;;;;;;;14.48;3.92;;;23.40;99.90;;;;;;5025270;28;20192;-91
2022/06/23 05:56:16;;;;;;;12.95;3.72;;;23.40;99.90;;;;;;5035235;28;20145;-91
2022/06/23 05:59:34;;;;;;;26.02;4.72;;;23.60;99.90;;;;;;5024517;28;20231;-86
2022/06/23 06:02:20;;;;;;;10.07;4.00;;;23.90;99.90;;;;;;5022494;28;20172;-93
2022/06/23 06:04:51;;;;;;;9.13;4.78;;;24.10;99.90;;;;;;5028531;28;20182;-90
2022/06/23 06:07:41;;;;;;;23.17;5.38;;;24.10;99.90;;;;;;5047217;28;20179;-90
2022/06/23 06:10:22;;;;;;;10.40;4.57;;;24.00;99.90;;;;;;5038116;28;20227;-92
2022/06/23 06:12:50;;;;;;;16.70;5.75;;;24.30;99.90;;;;;;5023773;28;20653;-91
2022/06/23 06:15:32;;;;;;;18.85;6.38;;;24.50;99.90;;;;;;5029451;28;20183;-86
2022/06/23 06:18:29;;;;;;;14.98;6.13;;;24.30;99.90;;;;;;5025214;28;20207;-92
2022/06/23 06:21:00;;;;;;;16.23;4.30;;;24.30;99.90;;;;;;5024082;28;20180;-89
2022/06/23 06:23:58;;;;;;;8.98;6.18;;;24.30;99.90;;;;;;5020440;28;20242;-84
2022/06/23 06:26:30;;;;;;;10.02;5.07;;;24.20;99.90;;;;;;5013648;28;20177;-92
2022/06/23 06:29:10;;;;;;;13.18;5.78;;;24.40;99.90;;;;;;5013914;28;20589;-89
2022/06/23 06:31:52;;;;;;;12.98;5.90;;;24.40;99.90;;;;;;5015222;28;20204;-86
2022/06/23 06:34:21;;;;;;;13.80;5.30;;;24.50;99.90;;;;;;5011142;28;20191;-89
2022/06/23 06:36:49;;;;;;;9.82;4.82;;;24.70;99.90;;;;;;5013853;28;20610;-89
2022/06/23 06:39:25;;;;;;;7.90;5.50;;;24.90;99.90;;;;;;5013973;28;20299;-88
2022/06/23 06:42:00;;;;;;;10.13;5.05;;;25.10;99.90;;;;;;5013969;28;20172;-88
2022/06/23 06:44:26;;;;;;;12.77;4.75;;;25.00;99.90;;;;;;5014671;28;20207;-88
2022/06/23 06:46:53;;;;;;;16.25;5.53;;;25.20;99.90;;;;;;5013721;28;20172;-89
2022/06/23 06:49:22;;;;;;;10.77;5.35;;;25.30;99.90;;;;;;5013401;28;20169;-89
2022/06/23 06:51:50;;;;;;;13.73;6.45;;;25.50;99.90;;;;;;5013518;28;20250;-89
2022/06/23 06:54:24;;;;;;;8.88;4.88;;;25.70;99.90;;;;;;5013555;28;20230;-87
2022/06/23 06:56:54;;;;;;;6.43;4.13;;;26.40;99.90;;;;;;5014318;28;20191;-89
2022/06/23 06:59:44;;;;;;;10.55;4.32;;;27.20;99.90;;;;;;5014634;28;20208;-89
2022/06/23 07:02:34;;;;;;;14.45;5.18;;;28.00;99.90;;;;;;5013764;28;20173;-89
2022/06/23 07:05:26;;;;;;;10.57;5.03;;;28.10;99.90;;;;;;5015053;28;20247;-90
2022/06/23 07:07:59;;;;;;;9.25;4.50;;;28.90;99.90;;;;;;5014717;28;20288;-89
2022/06/23 07:10:30;;;;;;;16.92;4.78;;;28.70;99.90;;;;;;5013463;28;20539;-89
2022/06/23 07:13:01;;;;;;;16.02;5.25;;;28.10;99.90;;;;;;5013433;28;20238;-89
2022/06/23 07:15:40;;;;;;;15.48;5.70;;;28.30;99.90;;;;;;5013496;28;20164;-89
2022/06/23 07:18:28;;;;;;;11.75;5.07;;;28.70;99.90;;;;;;5013050;28;20675;-91
2022/06/23 07:21:10;;;;;;;9.10;4.50;;;27.80;99.90;;;;;;5022886;28;20156;-84
2022/06/23 07:23:51;;;;;;;15.38;4.47;;;28.20;99.90;;;;;;5036609;28;20165;-85
2022/06/23 07:26:32;;;;;;;9.18;4.80;;;29.20;99.90;;;;;;5036711;28;20187;-81
2022/06/23 07:29:05;;;;;;;20.25;5.05;;;29.30;99.90;;;;;;5018119;28;20283;-87
2022/06/23 07:31:44;;;;;;;17.38;4.90;;;30.10;99.90;;;;;;5011672;28;20207;-84
2022/06/23 07:34:12;;;;;;;12.93;4.25;;;30.20;99.90;;;;;;5012780;28;20168;-84
2022/06/23 07:37:07;;;;;;;12.40;4.40;;;29.80;99.90;;;;;;5011655;28;20168;-84
2022/06/23 07:39:37;;;;;;;13.07;4.82;;;29.70;99.90;;;;;;5010983;28;20659;-84
2022/06/23 07:42:19;;;;;;;11.73;4.25;;;29.50;99.90;;;;;;5031907;28;20172;-83
2022/06/23 07:44:47;;;;;;;16.65;4.88;;;30.80;99.90;;;;;;5015335;28;20172;-84
2022/06/23 07:47:12;;;;;;;9.02;4.57;;;30.90;99.90;;;;;;5015015;28;20187;-83
2022/06/23 07:49:38;;;;;;;10.90;5.28;;;30.30;99.90;;;;;;5016501;28;20187;-84
2022/06/23 07:52:04;;;;;;;7.88;5.63;;;29.30;99.90;;;;;;5015990;28;20294;-85
2022/06/23 07:54:30;;;;;;;11.50;5.82;;;28.40;99.90;;;;;;5016484;28;20164;-86
2022/06/23 07:56:57;;;;;;;14.40;5.80;;;27.70;99.90;;;;;;5015082;28;20181;-85
2022/06/23 07:59:42;;;;;;;12.73;5.90;;;27.00;99.90;;;;;;5016551;28;20232;-86
2022/06/23 08:02:21;;;;;;;10.82;5.32;;;26.60;99.90;;;;;;5016621;28;20629;-87
2022/06/23 08:05:08;;;;;;;16.88;6.32;;;26.50;99.90;;;;;;5016148;28;20698;-83
2022/06/23 08:07:35;;;;;;;10.82;6.70;;;26.60;99.90;;;;;;5015140;28;20189;-83
2022/06/23 08:10:05;;;;;;;7.55;5.63;;;27.00;99.90;;;;;;5015990;28;20693;-84
2022/06/23 08:12:55;;;;;;;8.07;5.65;;;27.40;99.90;;;;;;5015590;28;20572;-83
2022/06/23 08:18:32;;;;;;;12.95;6.18;;;27.50;99.90;;;;;;5016258;28;20211;-83
2022/06/23 08:21:11;;;;;;;13.20;5.43;;;27.50;99.90;;;;;;5014501;28;20632;-82
2022/06/23 08:23:51;;;;;;;16.77;6.03;;;27.30;99.90;;;;;;5015819;28;20644;-82
2022/06/23 08:26:18;;;;;;;9.05;5.85;;;27.50;99.90;;;;;;5015663;28;20176;-82
2022/06/23 08:28:47;;;;;;;8.68;5.88;;;27.60;99.90;;;;;;5016213;28;20188;-82
2022/06/23 08:31:13;;;;;;;11.90;4.78;;;27.80;99.90;;;;;;5014514;28;20298;-82
2022/06/23 08:33:39;;;;;;;6.93;5.53;;;27.50;99.90;;;;;;5016017;28;20633;-82
2022/06/23 08:36:11;;;;;;;9.60;5.75;;;27.70;99.90;;;;;;5015535;28;20168;-82
2022/06/23 08:38:53;;;;;;;7.22;4.57;;;27.70;99.90;;;;;;5014123;28;20196;-81
2022/06/23 08:41:49;;;;;;;10.68;5.53;;;27.80;99.90;;;;;;5015834;28;20195;-82
2022/06/23 08:44:34;;;;;;;12.38;5.57;;;27.60;99.90;;;;;;5016190;28;20180;-83
2022/06/23 08:47:25;;;;;;;6.45;4.68;;;27.70;99.90;;;;;;5016302;28;20629;-86
2022/06/23 08:50:02;;;;;;;7.53;5.32;;;28.10;99.90;;;;;;5012440;28;20172;-86
2022/06/23 08:52:59;;;;;;;4.97;4.47;;;28.40;99.90;;;;;;5028530;28;20199;-84
2022/06/23 08:55:56;;;;;;;5.50;4.97;;;28.20;99.90;;;;;;5016340;28;20240;-85
2022/06/23 08:58:41;;;;;;;27.80;5.75;;;28.10;99.90;;;;;;5029801;28;20200;-84
2022/06/23 09:01:13;;;;;;;9.75;4.85;;;27.90;99.90;;;;;;5031932;28;20176;-85
2022/06/23 09:04:40;;;;;;;9.20;5.05;;;27.30;99.90;;;;;;5093554;23;20231;-85
2022/06/23 09:07:35;;;;;;;5.15;4.57;;;27.50;99.90;;;;;;5021530;28;20184;-85
2022/06/23 09:10:28;;;;;;;6.93;5.05;;;27.80;99.90;;;;;;5013763;28;20187;-86
2022/06/23 09:13:09;;;;;;;6.65;4.47;;;28.40;99.90;;;;;;5018646;28;20212;-86
2022/06/23 09:15:51;;;;;;;12.07;4.32;;;28.90;99.90;;;;;;5016802;28;20168;-87
2022/06/23 09:21:50;;;;;;;22.27;4.72;;;28.70;99.90;;;;;;5185498;23;20203;-87
2022/06/23 09:24:31;;;;;;;20.52;3.88;;;28.60;99.90;;;;;;5042413;28;20236;-84
2022/06/23 09:27:43;;;;;;;10.18;4.05;;;28.80;99.90;;;;;;5043453;28;20186;-86
2022/06/23 09:30:18;;;;;;;7.88;3.30;;;28.70;99.90;;;;;;5039309;28;20202;-86
2022/06/23 09:32:58;;;;;;;10.63;3.72;;;29.20;99.90;;;;;;5018645;28;20198;-86
2022/06/23 09:35:48;;;;;;;12.07;3.63;;;29.30;99.90;;;;;;5028807;23;20174;-85
2022/06/23 09:38:43;;;;;;;7.40;3.53;;;29.40;99.90;;;;;;5020671;28;20208;-84
2022/06/23 09:41:17;;;;;;;9.38;4.10;;;29.00;99.90;;;;;;5025028;28;20168;-90
2022/06/23 09:44:24;;;;;;;4.03;3.70;;;28.80;99.90;;;;;;5025571;28;20170;-92
2022/06/23 09:47:27;;;;;;;8.05;4.00;;;29.00;99.90;;;;;;5023313;28;20168;-81
2022/06/23 09:50:09;;;;;;;7.03;3.65;;;28.90;99.90;;;;;;5002864;28;20173;-92
2022/06/23 09:52:44;;;;;;;5.60;4.28;;;28.70;99.90;;;;;;5002878;28;20208;-87
2022/06/23 09:56:03;;;;;;;8.40;4.07;;;28.70;99.90;;;;;;5011367;28;20208;-79
2022/06/23 09:58:59;;;;;;;4.85;3.60;;;28.60;99.90;;;;;;4997989;28;20670;-85
2022/06/23 10:01:50;;;;;;;5.63;3.83;;;28.60;99.90;;;;;;5007000;28;20634;-90
2022/06/23 10:04:44;;;;;;;23.05;3.70;;;28.70;99.90;;;;;;5014030;28;20224;-89
2022/06/23 10:07:48;;;;;;;16.85;3.80;;;28.80;99.90;;;;;;5006107;28;20271;-94
2022/06/23 10:10:28;;;;;;;8.77;3.30;;;28.60;99.90;;;;;;5014464;28;20155;-82
2022/06/23 10:13:23;;;;;;;7.85;2.85;;;28.60;99.90;;;;;;5017052;28;20212;-89
2022/06/23 10:16:25;;;;;;;8.23;2.92;;;28.50;99.90;;;;;;5017785;28;20204;-80
2022/06/23 10:18:58;;;;;;;6.97;3.63;;;28.60;99.90;;;;;;4999615;28;20231;-80
2022/06/23 10:22:05;;;;;;;4.65;2.92;;;28.80;99.90;;;;;;5009614;28;20175;-90
2022/06/23 10:24:48;;;;;;;8.07;3.03;;;29.10;99.90;;;;;;4985887;28;20187;-84
2022/06/23 10:27:31;;;;;;;5.90;3.30;;;29.20;99.90;;;;;;5009840;28;20183;-85
2022/06/23 10:30:21;;;;;;;6.15;2.78;;;29.00;99.90;;;;;;5001914;28;20185;-83
2022/06/23 10:33:03;;;;;;;11.40;2.67;;;29.10;99.90;;;;;;4997776;28;20225;-83
2022/06/23 10:35:40;;;;;;;7.60;2.90;;;29.30;99.90;;;;;;4992709;28;20169;-83
2022/06/23 10:38:30;;;;;;;8.10;3.58;;;29.20;99.90;;;;;;4993749;28;20185;-87
2022/06/23 10:41:04;;;;;;;13.63;3.10;;;29.00;99.90;;;;;;4992627;28;20222;-84
2022/06/23 10:43:46;;;;;;;5.97;3.13;;;28.80;99.90;;;;;;4991992;28;20188;-85
2022/06/23 10:46:13;;;;;;;10.27;2.88;;;28.80;99.90;;;;;;4992613;28;20234;-88
2022/06/23 10:48:42;;;;;;;12.15;2.67;;;29.20;99.90;;;;;;4992643;28;20213;-84
2022/06/23 10:51:20;;;;;;;4.90;2.70;;;29.50;99.90;;;;;;4994674;28;20264;-86
2022/06/23 10:54:26;;;;;;;9.40;2.50;;;29.60;99.90;;;;;;4995345;28;20203;-85
2022/06/23 10:56:57;;;;;;;7.28;2.60;;;29.30;99.90;;;;;;4974964;28;20267;-84
2022/06/23 10:59:50;;;;;;;5.53;3.25;;;29.30;99.90;;;;;;4998369;28;20195;-85
2022/06/23 11:02:34;;;;;;;13.95;2.72;;;29.50;99.90;;;;;;5011598;28;20686;-86
2022/06/23 11:05:14;;;;;;;3.40;2.45;;;29.80;99.90;;;;;;5011591;28;20172;-84
2022/06/23 11:07:46;;;;;;;10.98;2.90;;;29.90;99.90;;;;;;5011007;28;20659;-85
2022/06/23 11:10:27;;;;;;;5.10;2.00;;;30.10;99.90;;;;;;5007583;28;20180;-85
2022/06/23 11:13:10;;;;;;;7.85;2.45;;;30.10;99.90;;;;;;5011304;28;20219;-84
2022/06/23 11:15:45;;;;;;;2.40;2.20;;;29.90;99.90;;;;;;5012234;28;20191;-85
2022/06/23 11:18:37;;;;;;;15.20;3.10;;;30.10;99.90;;;;;;4998554;28;20199;-83
2022/06/23 11:21:14;;;;;;;5.97;2.28;;;29.80;99.90;;;;;;5010341;28;20180;-84
2022/06/23 11:23:55;;;;;;;3.00;2.28;;;29.80;99.90;;;;;;5011602;28;20616;-85
2022/06/23 11:26:50;;;;;;;3.38;2.30;;;29.80;99.90;;;;;;5010643;28;20207;-84
2022/06/23 11:29:27;;;;;;;9.88;2.33;;;29.70;99.90;;;;;;4987687;28;20233;-82
2022/06/23 11:32:28;;;;;;;6.57;2.15;;;29.90;99.90;;;;;;4972447;28;20197;-84
2022/06/23 11:35:31;;;;;;;5.07;2.30;;;29.60;99.90;;;;;;4970808;28;20545;-82
2022/06/23 11:38:05;;;;;;;13.85;2.92;;;29.70;99.90;;;;;;4995855;28;20204;-82
2022/06/23 11:40:49;;;;;;;4.25;2.65;;;29.70;99.90;;;;;;4994376;28;20177;-82
2022/06/23 11:43:38;;;;;;;7.65;2.45;;;29.40;99.90;;;;;;4992870;28;20164;-81
2022/06/23 11:46:12;;;;;;;9.63;2.60;;;29.40;99.90;;;;;;4987057;28;20188;-82
2022/06/23 11:48:50;;;;;;;5.60;2.75;;;29.20;99.90;;;;;;4989899;28;20223;-86
2022/06/23 11:51:40;;;;;;;4.90;2.67;;;29.40;99.90;;;;;;4991986;28;20232;-85
2022/06/23 11:54:18;;;;;;;5.72;2.50;;;29.40;99.90;;;;;;4992595;28;20169;-86
2022/06/23 11:56:47;;;;;;;2.55;2.10;;;29.30;99.90;;;;;;4994167;28;20176;-88
2022/06/23 11:59:24;;;;;;;6.32;2.00;;;29.00;99.90;;;;;;4994051;28;20266;-84
2022/06/23 12:01:52;;;;;;;2.83;2.25;;;28.90;99.90;;;;;;5013654;28;20676;-86
2022/06/23 12:04:21;;;;;;;7.15;2.65;;;29.00;99.90;;;;;;5002324;28;20618;-86
2022/06/23 12:07:01;;;;;;;6.35;3.03;;;29.40;99.90;;;;;;4998853;28;20173;-83
2022/06/23 12:09:49;;;;;;;4.95;2.47;;;29.50;99.90;;;;;;5008863;28;20191;-84
2022/06/23 12:12:16;;;;;;;3.55;2.47;;;29.40;99.90;;;;;;4983764;28;20207;-84
2022/06/23 12:14:42;;;;;;;10.88;2.40;;;29.70;99.90;;;;;;5008996;28;20172;-83
2022/06/23 12:17:18;;;;;;;8.73;3.13;;;29.70;99.90;;;;;;5007756;28;20179;-81
2022/06/23 12:20:21;;;;;;;8.45;2.65;;;29.70;99.90;;;;;;4997173;28;20210;-83
2022/06/23 12:22:59;;;;;;;3.67;2.15;;;29.80;99.90;;;;;;5011827;28;20176;-83
2022/06/23 12:25:55;;;;;;;6.95;2.20;;;29.70;99.90;;;;;;4996888;28;20185;-82
2022/06/23 12:28:42;;;;;;;6.70;2.75;;;29.50;99.90;;;;;;4993195;28;20209;-82
2022/06/23 12:31:16;;;;;;;15.98;2.95;;;29.70;99.90;;;;;;4997988;28;20554;-86
2022/06/23 12:34:11;;;;;;;4.10;2.80;;;29.70;99.90;;;;;;5004439;28;20176;-87
2022/06/23 12:37:00;;;;;;;5.07;2.25;;;29.80;99.90;;;;;;4991122;28;20277;-86
2022/06/23 12:39:37;;;;;;;4.40;2.03;;;29.40;99.90;;;;;;4992902;28;20176;-85
2022/06/23 12:42:10;;;;;;;5.25;2.40;;;29.40;99.90;;;;;;4996213;28;20203;-87
2022/06/23 12:44:58;;;;;;;5.97;1.95;;;29.70;99.90;;;;;;4992457;28;20594;-86
2022/06/23 12:47:50;;;;;;;2.78;2.42;;;29.80;99.90;;;;;;4994243;28;20222;-84
2022/06/23 12:50:26;;;;;;;4.30;2.33;;;29.70;99.90;;;;;;4994006;28;20176;-83
2022/06/23 12:53:11;;;;;;;43.67;3.35;;;29.60;99.90;;;;;;4993387;28;20216;-84
2022/06/23 12:55:58;;;;;;;5.97;1.73;;;29.80;99.90;;;;;;4994806;28;20633;-84
2022/06/23 12:58:31;;;;;;;5.13;1.88;;;29.80;99.90;;;;;;5001662;28;20196;-85
2022/06/23 13:01:10;;;;;;;4.43;1.55;;;29.80;99.90;;;;;;4983564;28;20176;-82
2022/06/23 13:04:08;;;;;;;5.43;2.00;;;30.00;99.90;;;;;;5009921;28;20177;-84
2022/06/23 13:06:57;;;;;;;3.03;1.80;;;30.00;99.90;;;;;;4991625;28;20326;-83
2022/06/23 13:10:16;;;;;;;7.35;2.03;;;29.70;99.90;;;;;;4980435;28;20697;-88
2022/06/23 13:13:06;;;;;;;4.18;1.50;;;29.70;99.90;;;;;;4971263;28;20212;-90
2022/06/23 13:15:47;;;;;;;10.35;2.05;;;29.60;99.90;;;;;;5026196;28;20179;-87
2022/06/23 13:18:36;;;;;;;4.00;1.70;;;29.70;99.90;;;;;;4997239;28;20257;-85
2022/06/23 13:21:20;;;;;;;2.95;1.55;;;29.60;99.90;;;;;;4993716;28;20178;-86
2022/06/23 13:23:51;;;;;;;7.43;1.88;;;29.50;99.90;;;;;;4997362;28;20189;-86
2022/06/23 13:26:29;;;;;;;3.17;1.63;;;29.60;99.90;;;;;;5013901;28;20224;-85
2022/06/23 13:29:05;;;;;;;4.05;1.85;;;29.60;99.90;;;;;;5015469;28;20180;-85
2022/06/23 13:31:47;;;;;;;11.70;2.33;;;29.70;99.90;;;;;;5014147;28;20210;-84
2022/06/23 13:34:27;;;;;;;8.70;2.15;;;29.60;99.90;;;;;;5006288;28;20176;-85
2022/06/23 13:37:01;;;;;;;5.90;1.70;;;29.50;99.90;;;;;;5009150;28;20202;-87
2022/06/23 13:40:02;;;;;;;5.13;2.28;;;29.70;99.90;;;;;;5020363;28;20174;-87
2022/06/23 13:42:37;;;;;;;11.27;2.17;;;29.50;99.90;;;;;;5015468;28;20184;-87
2022/06/23 13:45:18;;;;;;;9.55;2.15;;;29.60;99.90;;;;;;5015700;28;20171;-87
2022/06/23 13:48:01;;;;;;;6.72;2.40;;;29.70;99.90;;;;;;4996166;28;20208;-87
2022/06/23 13:50:38;;;;;;;5.00;2.30;;;29.70;99.90;;;;;;4994712;28;20181;-86
2022/06/23 13:53:23;;;;;;;7.22;2.10;;;29.40;99.90;;;;;;4993326;28;20295;-87
2022/06/23 13:55:57;;;;;;;2.05;1.80;;;29.50;99.90;;;;;;4994058;28;20264;-86
2022/06/23 13:58:49;;;;;;;11.55;2.63;;;29.50;99.90;;;;;;4994172;28;20196;-87
2022/06/23 14:01:30;;;;;;;14.13;2.58;;;29.70;99.90;;;;;;4995610;28;20167;-87
2022/06/23 14:04:29;;;;;;;2.40;1.80;;;29.80;99.90;;;;;;4993512;28;20233;-87
2022/06/23 14:07:13;;;;;;;1.95;1.85;;;29.80;99.90;;;;;;4993944;28;20646;-86